Teigen, MT

11:29 AM MDT on July 20, 2017 (GMT -0600)
Lewistown Municipal | | Change Station
Active Advisory: Fire Weather Warning

Elev 4167 ft 47.05 °N, 109.47 °W | Updated 35 minutes ago

Clear
Clear
83 °F
Feels Like 83 °F
N
0
Wind Variable Wind from North

Today
High -- | Low -- °F
--% Chance of Precip.
Yesterday
High -- | Low -- °F
Precip. -- in
Pressure 29.84 in
Visibility 10.0 miles
Clouds Clear
Dew Point 38 °F
Humidity 20%
Rainfall 0.00 in
Snow Depth Not available.
5:40 AM 9:00 PM
Waning Crescent, 10% visible
METAR KLWT 201654Z AUTO 00000KT 10SM CLR 28/03 A2997 RMK AO2 SLP103 T02830033
Pressure 29.84 in
Visibility 10.0 miles
Clouds Clear
Dew Point 38 °F
Humidity 20%
Rainfall 0.00 in
Snow Depth Not available.
5:40 AM 9:00 PM
Waning Crescent, 10% visible
METAR KLWT 201654Z AUTO 00000KT 10SM CLR 28/03 A2997 RMK AO2 SLP103 T02830033

Get Your Daily Forecast Email!

Thanks for signing up!

Be on the lookout for a verification email in your inbox.

You'll start receiving severe weather alerts in your inbox..

×

10-Day Weather Forecast

Almanac

Astronomy

Jul. 20, 2017 Rise Set
Actual Time
Civil Twilight
Nautical Twilight
Astronomical Twilight
Moon
Length of Visible Light
Length of Day
Tomorrow will be .
, % of the Moon is Illuminated

Today's Extremes

State Highs State Lows

Community

WunderPhotos

Category 6

Welcome to Category 6. This is the collective home for Weather Underground's featured writeups by Dr. Jeff Masters (right), Bob Henson (left), Chris Burt, and other regular contributors.

Nearby

Air Quality

  Air Quality AQ Index Pollutant
Not available.

Snow Depth

Station Depth Elevation

Earthquake Activity

City Distance Mag. Time & Date
Minimum magnitude displayed is 2.5.

Coastal Water Temperatures

Place Temperature

Stations

Nearby Weather Stations

Station Location Temp. Windchill Dew Point Humidity Wind Precip. Elev Updated Type
                   

Watches & Warnings

Fire Weather Warning
Issued: 3:18 AM MDT Jul. 20, 2017 – National Weather Service

... Red flag warning in effect from noon today to 9 PM MDT this
evening for low relative humidity and gusty winds for fire
weather zones 135... 136 and 137...

The National Weather Service in Glasgow has issued a red flag
warning for low relative humidity and gusty winds... which is in
effect from noon today to 9 PM MDT this evening. The Fire Weather
Watch is no longer in effect.

* Affected area... fire weather zones 135... 136 and 137.

* Winds... west 5 to 15 mph with gusts up to 25 mph.

* Timing... noon to 9 PM today.

* Relative humidity... as low as 10 percent.

* Temperatures... in the mid to upper 90s.

* Impacts... low relative humidity and gusty winds will create
the potential for erratic fire behavior.

Precautionary/preparedness actions...

Please advise the appropriate officials or fire crews in these
areas of this red flag warning.



Http://www.Weather.Gov/Glasgow